Time;durP1;ratioP1;P1;durP2;ratioP2;P2;SDS_P1;SDS_P2;PMS_P1;PMS_P2;Temp;Humidity;BMP_temperature;BMP_pressure;BME280_temperature;BME280_humidity;BME280_pressure;Samples;Min_cycle;Max_cycle;Signal;HPM_P1;HPM_P2
2022/04/17 00:00:23;;;;;;;3.88;2.85;;;;;;;12.55;49.52;96181.59;4994113;28;20037;-62
2022/04/17 00:02:49;;;;;;;5.55;2.70;;;;;;;12.48;49.19;96167.97;4994056;28;20022;-62
2022/04/17 00:05:15;;;;;;;3.60;2.50;;;;;;;12.46;48.86;96159.31;4994013;28;20408;-61
2022/04/17 00:07:40;;;;;;;6.28;2.97;;;;;;;12.49;48.93;96171.44;4993618;28;20027;-63
2022/04/17 00:10:11;;;;;;;3.45;2.25;;;;;;;12.51;48.15;96173.06;4993993;28;20033;-62
2022/04/17 00:12:39;;;;;;;4.70;2.72;;;;;;;12.47;48.57;96171.53;4994012;28;20461;-60
2022/04/17 00:15:05;;;;;;;6.22;2.40;;;;;;;12.49;48.44;96160.94;4993805;28;20085;-62
2022/04/17 00:17:31;;;;;;;4.63;2.60;;;;;;;12.57;48.56;96150.03;4993924;28;20380;-63
2022/04/17 00:19:56;;;;;;;3.58;2.65;;;;;;;12.54;48.20;96140.56;4993797;28;20025;-61
2022/04/17 00:22:23;;;;;;;6.82;3.05;;;;;;;12.53;48.88;96138.88;4993796;28;20026;-64
2022/04/17 00:24:49;;;;;;;3.78;2.63;;;;;;;12.50;48.43;96146.91;4993685;28;20035;-61
2022/04/17 00:27:15;;;;;;;3.38;2.92;;;;;;;12.49;49.82;96143.44;4976247;28;20077;-64
2022/04/17 00:29:42;;;;;;;3.38;2.83;;;;;;;12.50;48.76;96142.50;4993687;28;20392;-63
2022/04/17 00:32:08;;;;;;;3.95;2.42;;;;;;;12.52;48.40;96147.66;4993558;28;20030;-63
2022/04/17 00:34:36;;;;;;;2.63;2.40;;;;;;;12.47;48.40;96153.16;4993621;28;20034;-62
2022/04/17 00:37:02;;;;;;;3.22;2.30;;;;;;;12.48;48.60;96146.13;4993625;28;20026;-65
2022/04/17 00:39:28;;;;;;;4.30;2.95;;;;;;;12.54;48.36;96144.97;4993335;28;20042;-61
2022/04/17 00:41:54;;;;;;;2.83;2.55;;;;;;;12.52;48.75;96142.41;4993485;28;20394;-63
2022/04/17 00:44:20;;;;;;;5.57;2.83;;;;;;;12.55;48.49;96136.19;4993438;28;20022;-62
2022/04/17 00:46:45;;;;;;;4.05;2.55;;;;;;;12.55;48.41;96139.63;4993488;28;20025;-63
2022/04/17 00:49:11;;;;;;;4.38;2.60;;;;;;;12.47;48.15;96134.81;4993698;28;20069;-64
2022/04/17 00:51:37;;;;;;;4.55;2.40;;;;;;;12.47;48.49;96139.19;4993392;28;20094;-63
2022/04/17 00:54:06;;;;;;;5.10;2.88;;;;;;;12.49;48.41;96145.19;4993505;28;20022;-62
2022/04/17 00:56:32;;;;;;;9.30;3.17;;;;;;;12.51;48.18;96133.72;4993418;28;20033;-61
2022/04/17 00:58:58;;;;;;;3.45;3.10;;;;;;;12.43;48.16;96132.41;4993525;28;20069;-62
2022/04/17 01:01:24;;;;;;;4.40;2.60;;;;;;;12.50;48.65;96137.25;4993401;28;20022;-64
2022/04/17 01:03:51;;;;;;;2.58;2.38;;;;;;;12.51;48.71;96127.59;4993454;28;20030;-62
2022/04/17 01:06:17;;;;;;;3.63;3.00;;;;;;;12.50;48.64;96116.25;4993439;28;20029;-63
2022/04/17 01:08:43;;;;;;;6.18;3.10;;;;;;;12.52;48.98;96116.19;4993377;28;20027;-63
2022/04/17 01:11:09;;;;;;;2.90;2.42;;;;;;;12.50;48.91;96118.88;4993187;28;20030;-63
2022/04/17 01:13:38;;;;;;;3.10;2.67;;;;;;;12.51;49.46;96117.13;4993309;28;20075;-64
2022/04/17 01:16:05;;;;;;;5.72;2.83;;;;;;;12.54;48.62;96121.34;4993268;28;20054;-65
2022/04/17 01:18:56;;;;;;;4.95;3.25;;;;;;;12.48;49.29;96119.91;4993163;28;20057;-64
2022/04/17 01:21:26;;;;;;;3.28;2.95;;;;;;;12.45;49.36;96126.16;4995949;28;20396;-62
2022/04/17 01:26:56;;;;;;;8.38;3.17;;;;;;;12.43;49.46;96127.19;4997281;28;21650;-65
2022/04/17 01:29:29;;;;;;;4.20;2.95;;;;;;;12.44;50.04;96126.25;4996814;28;20030;-64
2022/04/17 01:31:55;;;;;;;4.35;2.97;;;;;;;12.45;50.18;96135.78;4996759;28;20404;-63
2022/04/17 01:34:21;;;;;;;5.60;3.45;;;;;;;12.49;50.16;96148.69;4996637;28;20030;-64
2022/04/17 01:36:49;;;;;;;3.70;3.05;;;;;;;12.50;49.92;96139.03;4996794;28;20469;-62
2022/04/17 01:39:14;;;;;;;3.65;2.88;;;;;;;12.48;50.62;96135.63;4996424;28;20054;-62
2022/04/17 01:41:41;;;;;;;6.47;3.20;;;;;;;12.44;50.42;96137.59;4996586;28;20034;-64
2022/04/17 01:44:07;;;;;;;3.50;3.20;;;;;;;12.47;50.45;96139.19;4996526;28;20023;-64
2022/04/17 01:46:33;;;;;;;4.15;3.35;;;;;;;12.54;50.57;96143.19;4996585;28;20373;-62
2022/04/17 01:48:59;;;;;;;5.55;3.60;;;;;;;12.50;50.99;96136.41;4996518;28;20030;-62
2022/04/17 01:51:26;;;;;;;4.70;3.50;;;;;;;12.43;50.90;96124.56;4996330;28;20543;-63
2022/04/17 01:53:51;;;;;;;3.95;3.13;;;;;;;12.42;51.37;96125.47;4996415;28;20049;-64
2022/04/17 01:56:17;;;;;;;6.32;3.58;;;;;;;12.35;51.93;96125.81;4996382;28;20481;-62
2022/04/17 01:58:42;;;;;;;3.38;3.00;;;;;;;12.36;52.45;96124.00;4996196;28;20540;-63
2022/04/17 02:01:08;;;;;;;4.45;3.38;;;;;;;12.26;52.31;96116.59;4996242;28;20040;-62
2022/04/17 02:03:34;;;;;;;3.92;3.35;;;;;;;12.24;52.24;96120.25;4996222;28;20031;-63
2022/04/17 02:06:02;;;;;;;7.05;4.03;;;;;;;12.19;52.46;96124.88;4996149;28;20125;-62
2022/04/17 02:08:28;;;;;;;4.07;3.40;;;;;;;12.10;52.93;96113.94;4995940;28;20026;-63
2022/04/17 02:10:55;;;;;;;6.60;3.80;;;;;;;12.11;53.09;96118.28;4995992;28;20117;-62
2022/04/17 02:13:21;;;;;;;4.82;3.70;;;;;;;12.11;53.03;96122.66;4996134;28;20536;-64
2022/04/17 02:15:49;;;;;;;9.88;3.90;;;;;;;12.04;53.61;96121.25;4996113;28;20118;-64
2022/04/17 02:18:16;;;;;;;5.05;3.80;;;;;;;11.98;53.77;96115.38;4995897;28;20027;-62
2022/04/17 02:20:42;;;;;;;4.32;3.90;;;;;;;12.07;53.66;96115.88;4995912;28;20034;-63
2022/04/17 02:23:07;;;;;;;7.10;3.63;;;;;;;12.05;53.74;96122.94;4995776;28;20111;-64
2022/04/17 02:25:33;;;;;;;5.13;3.10;;;;;;;12.11;54.15;96123.50;4995754;28;20023;-64
2022/04/17 02:27:58;;;;;;;4.93;3.78;;;;;;;12.05;54.35;96125.56;4995744;28;20030;-63
2022/04/17 02:30:24;;;;;;;6.50;3.85;;;;;;;12.06;54.08;96119.38;4995566;28;20022;-62
2022/04/17 02:32:49;;;;;;;4.47;3.75;;;;;;;12.02;54.14;96121.31;4995579;28;20080;-64
2022/04/17 02:35:17;;;;;;;3.90;3.50;;;;;;;12.03;54.20;96124.78;4995611;28;20034;-63
2022/04/17 02:37:42;;;;;;;4.10;3.70;;;;;;;12.09;53.96;96121.88;4995539;28;20088;-64
2022/04/17 02:40:08;;;;;;;6.45;3.78;;;;;;;12.11;53.92;96115.66;4995236;28;20551;-62
2022/04/17 02:42:34;;;;;;;5.25;4.28;;;;;;;12.15;53.80;96112.84;4995393;28;20022;-63
2022/04/17 02:45:00;;;;;;;4.13;3.75;;;;;;;12.21;54.33;96110.78;4995542;28;20026;-61
2022/04/17 02:47:44;;;;;;;4.85;4.22;;;;;;;12.25;54.16;96114.91;4995485;28;20026;-63
2022/04/17 02:50:17;;;;;;;4.72;3.70;;;;;;;12.21;54.43;96113.41;4995322;28;20465;-62
2022/04/17 02:52:43;;;;;;;4.68;4.18;;;;;;;12.18;54.11;96117.94;4995148;28;20381;-62
2022/04/17 02:55:12;;;;;;;3.97;3.58;;;;;;;12.16;55.23;96112.75;4995237;28;20490;-64
2022/04/17 02:57:38;;;;;;;4.90;3.90;;;;;;;12.17;54.64;96111.88;4995157;28;20031;-62
2022/04/17 03:00:09;;;;;;;6.00;4.15;;;;;;;12.10;54.27;96103.44;4995170;28;20030;-64
2022/04/17 03:05:37;;;;;;;5.53;4.10;;;;;;;11.94;55.14;96092.88;4995259;28;20057;-62
2022/04/17 03:08:04;;;;;;;5.05;4.13;;;;;;;11.85;55.39;96094.19;4995069;28;20065;-63
2022/04/17 03:10:30;;;;;;;5.32;4.25;;;;;;;11.85;55.48;96098.56;4994750;28;20018;-63
2022/04/17 03:12:56;;;;;;;5.88;4.13;;;;;;;11.85;55.47;96102.03;4995046;28;20497;-64
2022/04/17 03:15:22;;;;;;;5.75;4.13;;;;;;;11.85;55.25;96104.66;4994844;28;20035;-62
2022/04/17 03:17:49;;;;;;;6.63;4.15;;;;;;;11.82;55.60;96099.56;4994772;28;20084;-62
2022/04/17 03:20:14;;;;;;;4.70;4.13;;;;;;;11.78;55.42;96097.19;4994730;28;20030;-64
2022/04/17 03:22:43;;;;;;;4.20;3.80;;;;;;;11.81;55.70;96104.91;4994698;28;20472;-64
2022/04/17 03:25:10;;;;;;;4.57;3.60;;;;;;;11.81;55.40;96110.13;4994648;28;20069;-62
2022/04/17 03:27:36;;;;;;;7.68;3.95;;;;;;;11.77;55.74;96111.22;4994601;28;20473;-65
2022/04/17 03:30:03;;;;;;;5.68;3.92;;;;;;;11.75;55.76;96117.38;4994495;28;20030;-64
2022/04/17 03:32:28;;;;;;;5.22;4.05;;;;;;;11.80;55.79;96116.31;4994296;28;20026;-64
2022/04/17 03:34:54;;;;;;;8.05;4.32;;;;;;;11.87;55.77;96118.53;4994637;28;20030;-64
2022/04/17 03:37:20;;;;;;;4.38;3.63;;;;;;;11.84;56.38;96120.47;4994488;28;20479;-61
2022/04/17 03:39:48;;;;;;;5.32;4.25;;;;;;;11.72;56.69;96114.06;4994296;28;20406;-65
2022/04/17 03:42:15;;;;;;;5.18;4.68;;;;;;;11.67;57.96;96118.66;4993989;28;20034;-63
2022/04/17 03:44:41;;;;;;;6.00;4.10;;;;;;;11.60;58.52;96121.63;4994028;28;20033;-64
2022/04/17 03:47:06;;;;;;;7.60;4.60;;;;;;;11.55;59.62;96128.84;4994308;28;20030;-63
2022/04/17 03:49:33;;;;;;;4.97;4.30;;;;;;;11.52;60.79;96138.59;4994277;28;20025;-65
2022/04/17 03:52:00;;;;;;;6.90;4.53;;;;;;;11.44;60.73;96152.91;4994227;28;20030;-62
2022/04/17 03:54:26;;;;;;;6.45;4.88;;;;;;;11.52;61.73;96160.41;4994278;28;20392;-63
2022/04/17 03:56:52;;;;;;;4.70;4.18;;;;;;;11.47;62.85;96165.88;4994161;28;20086;-63
2022/04/17 03:59:19;;;;;;;6.93;5.38;;;;;;;11.36;64.18;96171.63;4994226;28;20030;-64
2022/04/17 04:01:46;;;;;;;6.35;5.75;;;;;;;11.37;65.68;96186.41;4994111;28;20022;-66
2022/04/17 04:04:12;;;;;;;7.57;5.00;;;;;;;11.37;66.19;96183.78;4994108;28;20030;-63
2022/04/17 04:06:37;;;;;;;6.25;5.65;;;;;;;11.32;65.25;96201.47;4993991;28;20027;-62
2022/04/17 04:09:03;;;;;;;6.45;5.85;;;;;;;11.30;66.59;96208.56;4976516;28;20369;-66
2022/04/17 04:11:29;;;;;;;5.80;5.20;;;;;;;11.27;66.73;96211.31;4993880;28;20030;-63
2022/04/17 04:13:55;;;;;;;7.32;6.63;;;;;;;11.29;66.95;96206.84;4993953;28;20030;-65
2022/04/17 04:16:20;;;;;;;7.75;6.75;;;;;;;11.32;68.60;96204.09;4993865;28;20101;-64
2022/04/17 04:18:46;;;;;;;7.50;6.70;;;;;;;11.32;69.44;96205.88;4976435;28;20030;-62
2022/04/17 04:21:12;;;;;;;7.10;6.35;;;;;;;11.29;70.01;96204.22;4993785;28;20022;-66
2022/04/17 04:23:38;;;;;;;8.07;6.22;;;;;;;11.27;71.44;96216.56;4993690;28;20027;-65
2022/04/17 04:26:04;;;;;;;8.75;6.85;;;;;;;11.20;72.03;96225.63;4993701;28;20057;-64
2022/04/17 04:28:36;;;;;;;8.32;6.35;;;;;;;11.17;72.71;96234.44;4993778;28;20030;-65
2022/04/17 04:31:05;;;;;;;7.18;6.47;;;;;;;11.23;72.02;96244.66;4993724;28;20118;-65
2022/04/17 04:33:34;;;;;;;8.23;6.78;;;;;;;11.19;70.36;96240.47;4993746;28;20453;-66
2022/04/17 04:36:01;;;;;;;7.22;6.50;;;;;;;11.18;69.19;96235.31;4993726;28;20037;-65
2022/04/17 04:38:27;;;;;;;8.65;7.00;;;;;;;11.03;69.73;96237.69;4993624;28;20015;-67
2022/04/17 04:40:53;;;;;;;8.40;7.60;;;;;;;11.03;71.00;96247.31;4993361;28;20512;-63
2022/04/17 04:43:19;;;;;;;8.13;7.32;;;;;;;11.08;71.51;96246.19;4993518;28;20027;-63
2022/04/17 04:51:13;;;;;;;11.15;7.68;;;;;;;11.23;71.99;96249.88;4993714;28;20042;-63
2022/04/17 04:53:40;;;;;;;7.97;7.05;;;;;;;11.11;72.07;96246.03;4993597;28;20030;-66
2022/04/17 04:56:06;;;;;;;8.50;7.07;;;;;;;11.07;71.29;96243.63;4997395;28;20380;-66
2022/04/17 04:58:32;;;;;;;8.35;7.38;;;;;;;11.07;71.19;96243.63;4997448;28;20019;-67
2022/04/17 05:00:57;;;;;;;8.75;7.10;;;;;;;11.07;71.49;96241.00;4997395;28;20465;-66
2022/04/17 05:03:23;;;;;;;9.35;6.95;;;;;;;11.00;70.32;96237.84;4997357;28;20057;-67
2022/04/17 05:05:49;;;;;;;14.05;12.65;;;;;;;11.04;71.38;96242.00;4997217;28;20019;-66
2022/04/17 05:08:14;;;;;;;8.18;7.20;;;;;;;11.01;71.64;96244.75;4997106;28;20030;-65
2022/04/17 05:10:40;;;;;;;8.45;7.60;;;;;;;10.94;72.51;96241.59;4997077;28;20027;-63
2022/04/17 05:13:05;;;;;;;9.00;7.78;;;;;;;10.96;72.64;96241.50;4997334;28;20497;-65
2022/04/17 05:15:31;;;;;;;9.65;7.88;;;;;;;10.93;73.83;96239.88;4997019;28;20025;-63
2022/04/17 05:17:57;;;;;;;8.65;7.75;;;;;;;10.95;74.02;96239.78;4997009;28;20022;-62
2022/04/17 05:20:22;;;;;;;9.18;8.27;;;;;;;10.95;74.46;96242.41;4997030;28;20109;-61
2022/04/17 05:22:56;;;;;;;9.00;7.88;;;;;;;10.95;74.78;96245.88;4997065;28;20515;-62
2022/04/17 05:25:24;;;;;;;11.23;8.93;;;;;;;10.98;73.83;96250.13;4996947;28;20476;-67
2022/04/17 05:27:49;;;;;;;9.32;8.32;;;;;;;11.02;74.08;96248.25;4996943;28;20026;-66
2022/04/17 05:30:15;;;;;;;10.80;7.70;;;;;;;11.05;74.44;96245.50;4996831;28;20033;-67
2022/04/17 05:32:41;;;;;;;9.40;8.43;;;;;;;10.99;74.94;96239.59;4996694;28;20374;-63
2022/04/17 05:35:07;;;;;;;9.63;8.15;;;;;;;10.92;75.02;96243.41;4996817;28;20026;-61
2022/04/17 05:37:32;;;;;;;9.50;8.52;;;;;;;10.92;74.61;96247.78;4996715;28;20023;-64
2022/04/17 05:39:58;;;;;;;11.65;9.45;;;;;;;10.94;75.00;96251.19;4996467;28;20042;-65
2022/04/17 05:42:24;;;;;;;9.57;8.57;;;;;;;10.85;73.80;96241.97;4996670;28;20018;-64
2022/04/17 05:44:52;;;;;;;13.70;8.93;;;;;;;10.65;73.40;96240.25;4996591;28;20030;-61
2022/04/17 05:47:18;;;;;;;14.25;12.15;;;;;;;10.55;73.80;96238.00;4996591;28;20019;-62
2022/04/17 05:49:43;;;;;;;12.55;9.55;;;;;;;10.26;75.16;96239.22;4996574;28;20031;-66
2022/04/17 05:52:11;;;;;;;12.63;11.43;;;;;;;10.14;76.03;96233.56;4996401;28;20461;-67
2022/04/17 05:54:37;;;;;;;11.55;10.35;;;;;;;10.04;76.42;96230.50;4996465;28;20023;-63
2022/04/17 05:57:03;;;;;;;11.45;10.23;;;;;;;9.98;77.29;96230.72;4996355;28;20088;-65
2022/04/17 05:59:28;;;;;;;10.10;8.65;;;;;;;9.88;76.95;96227.66;4996387;28;20165;-64
2022/04/17 06:01:55;;;;;;;10.55;9.55;;;;;;;9.88;78.29;96229.41;4996165;28;20103;-67
2022/04/17 06:04:21;;;;;;;13.25;9.88;;;;;;;9.90;78.49;96236.25;4996333;28;20361;-63
2022/04/17 06:06:47;;;;;;;11.95;9.73;;;;;;;9.96;78.71;96230.78;4995490;28;20030;-65
2022/04/17 06:09:14;;;;;;;11.63;10.43;;;;;;;10.01;78.81;96227.13;4996229;28;20038;-66
2022/04/17 06:11:40;;;;;;;10.30;9.00;;;;;;;10.04;78.12;96234.84;4995977;28;20030;-63
2022/04/17 06:14:06;;;;;;;11.18;8.38;;;;;;;9.99;78.03;96228.06;4996247;28;20487;-62
2022/04/17 06:16:32;;;;;;;11.00;9.82;;;;;;;9.96;78.55;96232.53;4995997;28;20469;-65
2022/04/17 06:18:58;;;;;;;9.88;8.77;;;;;;;9.98;77.80;96220.28;4995973;28;20058;-64
2022/04/17 06:21:23;;;;;;;12.00;9.52;;;;;;;9.94;78.58;96218.72;4995854;28;20124;-64
2022/04/17 06:23:49;;;;;;;9.80;8.80;;;;;;;9.87;79.31;96228.53;4995928;28;20027;-63
2022/04/17 06:26:15;;;;;;;9.75;7.85;;;;;;;9.89;79.22;96228.47;4995900;28;20022;-64
2022/04/17 06:28:40;;;;;;;10.02;9.02;;;;;;;9.97;79.42;96216.81;4995877;28;20080;-64
2022/04/17 06:31:07;;;;;;;10.02;9.00;;;;;;;9.93;79.75;96222.25;4995689;28;20500;-63
2022/04/17 06:33:33;;;;;;;11.38;8.32;;;;;;;9.90;79.03;96211.91;4995696;28;20031;-65
2022/04/17 06:35:59;;;;;;;9.82;8.65;;;;;;;9.85;80.06;96209.50;4995624;28;20030;-64
2022/04/17 06:38:25;;;;;;;11.10;10.00;;;;;;;9.82;81.11;96207.81;4995590;28;20413;-62
2022/04/17 06:40:51;;;;;;;11.25;9.63;;;;;;;9.72;80.69;96203.88;4995335;28;20120;-65
2022/04/17 06:43:17;;;;;;;10.63;8.88;;;;;;;9.67;81.15;96203.22;4995511;28;20022;-64
2022/04/17 06:45:42;;;;;;;10.70;9.60;;;;;;;9.67;82.27;96188.44;4995513;28;20099;-64
2022/04/17 06:48:19;;;;;;;9.20;8.25;;;;;;;9.66;82.99;96193.72;4995401;28;20018;-65
2022/04/17 06:50:46;;;;;;;9.57;8.57;;;;;;;9.64;82.48;96188.53;4995421;28;20065;-63
2022/04/17 06:53:13;;;;;;;10.25;8.95;;;;;;;9.52;82.99;96189.88;4995524;28;20050;-64
2022/04/17 06:55:39;;;;;;;9.10;7.88;;;;;;;9.37;82.84;96186.09;4995214;28;20089;-66
2022/04/17 06:58:07;;;;;;;8.07;7.30;;;;;;;9.32;83.14;96182.81;4995243;28;20080;-63
2022/04/17 07:00:33;;;;;;;8.63;7.80;;;;;;;9.28;83.55;96183.84;4994932;28;20124;-63
2022/04/17 07:02:59;;;;;;;10.95;7.47;;;;;;;9.24;83.42;96183.09;4995171;28;20026;-64
2022/04/17 07:05:25;;;;;;;7.40;5.85;;;;;;;9.25;84.36;96184.81;4995203;28;20029;-63
2022/04/17 07:08:01;;;;;;;5.40;4.90;;;;;;;9.23;84.36;96189.25;4995020;28;20551;-65
2022/04/17 07:10:28;;;;;;;6.20;5.60;;;;;;;9.20;84.84;96178.91;4995177;28;20031;-65
2022/04/17 07:12:54;;;;;;;4.85;4.35;;;;;;;9.19;83.83;96179.84;4994712;28;20040;-65
2022/04/17 07:15:21;;;;;;;5.22;4.72;;;;;;;9.18;84.15;96178.13;4994846;28;20510;-63
2022/04/17 07:17:47;;;;;;;5.47;4.45;;;;;;;9.16;84.46;96183.41;4993868;28;20389;-62
2022/04/17 07:20:15;;;;;;;4.75;4.35;;;;;;;9.26;85.69;96177.81;4994610;28;20061;-62
2022/04/17 07:22:43;;;;;;;5.53;4.55;;;;;;;9.26;85.38;96172.59;4994648;28;20034;-64
2022/04/17 07:25:09;;;;;;;4.88;4.32;;;;;;;9.32;85.23;96185.41;4994780;28;20022;-62
2022/04/17 07:27:41;;;;;;;4.35;3.95;;;;;;;9.36;84.58;96194.81;4994739;28;20027;-65
2022/04/17 07:30:11;;;;;;;3.75;3.45;;;;;;;9.29;84.36;96185.53;4994556;28;20073;-63
2022/04/17 07:32:38;;;;;;;3.83;3.35;;;;;;;9.27;84.19;96179.53;4994568;28;20085;-64
2022/04/17 07:35:04;;;;;;;4.45;4.05;;;;;;;9.21;84.44;96178.84;4994499;28;20046;-65
2022/04/17 07:37:34;;;;;;;3.70;3.38;;;;;;;9.28;84.80;96176.88;4994462;28;20029;-62
2022/04/17 07:40:00;;;;;;;4.10;3.70;;;;;;;9.31;85.41;96183.72;4994188;28;20046;-64
2022/04/17 07:42:26;;;;;;;4.72;3.85;;;;;;;9.32;85.12;96191.50;4994350;28;20037;-62
2022/04/17 07:44:51;;;;;;;4.03;3.63;;;;;;;9.37;84.78;96196.56;4994333;28;20022;-64
2022/04/17 07:47:18;;;;;;;3.92;3.30;;;;;;;9.39;84.83;96196.50;4994304;28;20112;-64
2022/04/17 07:49:44;;;;;;;3.65;3.28;;;;;;;9.50;85.25;96196.06;4994377;28;20109;-62
2022/04/17 07:52:10;;;;;;;3.17;2.88;;;;;;;9.37;83.69;96198.31;4994283;28;20096;-62
2022/04/17 07:54:37;;;;;;;2.97;2.75;;;;;;;9.38;84.57;96200.84;4994262;28;20057;-65
2022/04/17 07:57:03;;;;;;;2.92;2.72;;;;;;;9.47;85.06;96183.97;4994086;28;20080;-63
2022/04/17 07:59:30;;;;;;;3.00;2.70;;;;;;;9.56;84.94;96167.09;4994045;28;20029;-66
2022/04/17 08:02:01;;;;;;;2.40;2.20;;;;;;;9.57;84.32;96153.97;4994101;28;20034;-63
2022/04/17 08:04:28;;;;;;;2.25;2.05;;;;;;;9.62;83.46;96148.56;4994092;28;20042;-63
2022/04/17 08:06:54;;;;;;;1.90;1.80;;;;;;;9.65;82.83;96150.19;4994008;28;20501;-63
2022/04/17 08:09:20;;;;;;;1.65;1.55;;;;;;;9.69;83.44;96142.19;4993920;28;20026;-63
2022/04/17 08:11:51;;;;;;;1.60;1.50;;;;;;;9.78;83.11;96154.00;4993955;28;20112;-63
2022/04/17 08:14:21;;;;;;;1.90;1.67;;;;;;;9.88;84.09;96151.03;4994017;28;20385;-62
2022/04/17 08:16:47;;;;;;;2.35;1.92;;;;;;;9.79;82.98;96149.66;4993944;28;20026;-61
2022/04/17 08:19:13;;;;;;;2.20;2.00;;;;;;;9.81;83.53;96153.06;4993911;28;20376;-64
2022/04/17 08:21:40;;;;;;;1.92;1.83;;;;;;;9.83;82.93;96140.78;4993914;28;20026;-65
2022/04/17 08:24:06;;;;;;;2.53;2.33;;;;;;;9.83;83.68;96139.00;4993725;28;20525;-65
2022/04/17 08:26:32;;;;;;;2.42;2.22;;;;;;;9.78;82.99;96138.34;4993806;28;20480;-63
2022/04/17 08:28:58;;;;;;;3.42;2.28;;;;;;;9.70;82.41;96153.50;4993509;28;20018;-64
2022/04/17 08:31:24;;;;;;;54.20;46.25;;;;;;;9.62;83.13;96156.41;4993678;28;20029;-65
2022/04/17 08:33:50;;;;;;;6.65;3.65;;;;;;;9.66;83.49;96149.31;4993591;28;20058;-64
2022/04/17 08:36:15;;;;;;;3.88;3.58;;;;;;;9.64;84.00;96156.34;4993799;28;20026;-65
2022/04/17 08:38:44;;;;;;;4.95;4.45;;;;;;;9.63;83.80;96139.81;4993681;28;20129;-64
2022/04/17 08:41:11;;;;;;;3.60;3.30;;;;;;;9.62;83.92;96148.56;4993441;28;20054;-64
2022/04/17 08:43:37;;;;;;;4.28;3.88;;;;;;;9.63;83.95;96150.25;4993584;28;20073;-62
2022/04/17 08:46:03;;;;;;;4.75;3.78;;;;;;;9.67;85.05;96151.88;4993546;28;20098;-63
2022/04/17 08:48:32;;;;;;;3.53;3.22;;;;;;;9.79;84.75;96165.31;4993556;28;20128;-64
2022/04/17 08:50:58;;;;;;;3.92;3.53;;;;;;;9.76;83.54;96162.84;4993489;28;20022;-64
2022/04/17 08:53:25;;;;;;;3.03;2.72;;;;;;;9.79;83.23;96171.41;4993598;28;20026;-63
2022/04/17 08:55:51;;;;;;;4.20;3.55;;;;;;;9.69;82.78;96155.25;4993406;28;20133;-65
2022/04/17 08:58:18;;;;;;;3.72;3.13;;;;;;;9.67;83.89;96158.84;4993423;28;20118;-63
2022/04/17 09:00:44;;;;;;;3.53;2.38;;;;;;;9.59;82.45;96154.78;4993474;28;20533;-64
2022/04/17 09:03:11;;;;;;;2.67;2.47;;;;;;;9.54;82.78;96145.44;4993442;28;20030;-62
2022/04/17 09:05:38;;;;;;;3.53;2.72;;;;;;;9.66;83.59;96146.69;4993442;28;20431;-65
2022/04/17 09:08:16;;;;;;;2.30;2.10;;;;;;;9.69;83.14;96147.41;4993265;28;20093;-63
2022/04/17 09:10:54;;;;;;;2.75;2.55;;;;;;;9.66;83.07;96150.13;4993246;28;20026;-64
2022/04/17 09:13:31;;;;;;;3.05;2.75;;;;;;;9.57;83.82;96135.69;4993329;28;20030;-62
2022/04/17 09:15:57;;;;;;;3.30;3.00;;;;;;;9.66;83.77;96139.69;4993415;28;20109;-65
2022/04/17 09:18:26;;;;;;;3.63;3.00;;;;;;;9.56;83.48;96139.22;4993526;28;20384;-62
2022/04/17 09:20:52;;;;;;;3.22;2.67;;;;;;;9.56;83.95;96133.16;4993247;28;20022;-64
2022/04/17 09:23:33;;;;;;;3.05;2.75;;;;;;;9.49;83.17;96132.56;4993238;28;20385;-64
2022/04/17 09:25:59;;;;;;;3.15;2.85;;;;;;;9.47;84.03;96139.59;4993217;28;20396;-64
2022/04/17 09:28:31;;;;;;;4.80;3.75;;;;;;;9.46;84.23;96133.50;4993157;28;20018;-64
2022/04/17 09:30:59;;;;;;;3.80;3.00;;;;;;;9.45;83.93;96141.44;4993111;28;20358;-64
2022/04/17 09:33:36;;;;;;;3.83;3.05;;;;;;;9.48;85.00;96154.34;4993122;28;20026;-65
2022/04/17 09:36:03;;;;;;;2.72;2.53;;;;;;;9.54;85.06;96145.44;4992942;28;20030;-65
2022/04/17 09:38:38;;;;;;;3.85;3.53;;;;;;;9.57;84.56;96138.31;4993194;28;20105;-62
2022/04/17 09:41:10;;;;;;;3.60;2.50;;;;;;;9.50;83.51;96146.44;4993606;28;20042;-64
2022/04/17 09:43:37;;;;;;;2.15;1.92;;;;;;;9.48;83.35;96152.59;4996520;28;20482;-62
2022/04/17 09:46:04;;;;;;;2.33;2.13;;;;;;;9.33;83.31;96153.22;4996652;28;20053;-64
2022/04/17 09:48:31;;;;;;;2.42;1.98;;;;;;;9.25;83.53;96152.63;4996612;28;20029;-66
2022/04/17 09:50:57;;;;;;;1.80;1.70;;;;;;;9.15;82.45;96147.78;4996439;28;20100;-64
2022/04/17 09:53:37;;;;;;;2.08;1.88;;;;;;;9.02;83.27;96154.38;4996452;28;20069;-65
2022/04/17 09:56:10;;;;;;;2.17;1.93;;;;;;;9.00;83.68;96157.03;4996486;28;20022;-63
2022/04/17 09:58:54;;;;;;;1.80;1.70;;;;;;;8.90;84.07;96145.25;4996277;28;20268;-62
2022/04/17 10:01:21;;;;;;;2.28;2.08;;;;;;;8.93;84.89;96140.78;4996290;28;20065;-61
2022/04/17 10:03:50;;;;;;;1.65;1.40;;;;;;;9.02;83.53;96129.13;4996422;28;20362;-62
2022/04/17 10:06:18;;;;;;;3.13;2.83;;;;;;;9.15;84.25;96124.28;4996187;28;20057;-61
2022/04/17 10:08:45;;;;;;;1.67;1.58;;;;;;;9.26;83.02;96115.19;4996217;28;20026;-62
2022/04/17 10:11:14;;;;;;;1.67;1.58;;;;;;;9.20;81.61;96116.28;4996070;28;20037;-63
2022/04/17 10:13:41;;;;;;;1.40;1.30;;;;;;;9.16;81.71;96110.34;4996105;28;20054;-65
2022/04/17 10:16:12;;;;;;;5.25;1.77;;;;;;;9.26;83.13;96099.53;4996214;28;20022;-62
2022/04/17 10:18:40;;;;;;;1.70;1.60;;;;;;;9.25;82.72;96090.00;4996169;28;20037;-64
2022/04/17 10:21:08;;;;;;;2.17;1.98;;;;;;;9.26;83.09;96087.34;4995927;28;20023;-62
2022/04/17 10:23:37;;;;;;;1.60;1.50;;;;;;;9.19;82.59;96093.72;4996026;28;20484;-65
2022/04/17 10:26:04;;;;;;;1.42;1.10;;;;;;;9.01;81.50;96082.22;4995918;28;20030;-65
2022/04/17 10:28:44;;;;;;;1.10;0.98;;;;;;;8.94;81.09;96089.47;4996003;28;20084;-63
2022/04/17 10:31:15;;;;;;;0.60;0.60;;;;;;;8.83;81.54;96090.72;4995683;28;20033;-64
2022/04/17 10:34:18;;;;;;;2.72;1.10;;;;;;;8.72;81.22;96080.69;4995799;28;20480;-65
2022/04/17 10:37:13;;;;;;;0.40;0.40;;;;;;;8.66;82.78;96093.97;4995813;28;20481;-65
2022/04/17 10:39:47;;;;;;;0.30;0.30;;;;;;;8.67;81.87;96103.47;4995550;28;20101;-65
2022/04/17 10:42:13;;;;;;;1.23;0.30;;;;;;;8.54;82.51;96097.88;4995571;28;20041;-64
2022/04/17 10:44:41;;;;;;;0.75;0.40;;;;;;;8.51;81.57;96104.91;4995585;28;20022;-65
2022/04/17 10:47:20;;;;;;;0.40;0.40;;;;;;;8.43;82.14;96103.44;4978149;28;20566;-65
2022/04/17 10:49:54;;;;;;;3.10;0.40;;;;;;;8.31;81.03;96109.13;4995327;28;20173;-64
2022/04/17 10:52:31;;;;;;;0.40;0.40;;;;;;;8.27;82.01;96107.50;4995248;28;20124;-64
2022/04/17 10:55:07;;;;;;;0.80;0.32;;;;;;;8.11;82.41;96118.47;4995446;28;20027;-63
2022/04/17 10:57:45;;;;;;;0.30;0.30;;;;;;;8.14;82.67;96118.38;4995309;28;20095;-64
2022/04/17 11:00:36;;;;;;;0.38;0.38;;;;;;;8.06;82.68;96113.44;4995350;28;20037;-64
2022/04/17 11:03:09;;;;;;;0.30;0.30;;;;;;;8.04;82.29;96109.19;4995218;28;20489;-62
2022/04/17 11:08:25;;;;;;;0.45;0.30;;;;;;;7.96;82.40;96123.31;4995189;28;20033;-65
2022/04/17 11:10:54;;;;;;;0.65;0.40;;;;;;;7.91;82.53;96127.81;4994888;28;20026;-63
2022/04/17 11:13:21;;;;;;;0.50;0.50;;;;;;;7.88;81.91;96135.75;4994924;28;20030;-64
2022/04/17 11:15:55;;;;;;;0.50;0.50;;;;;;;7.82;82.40;96133.34;4994894;28;20030;-65
2022/04/17 11:18:26;;;;;;;0.50;0.45;;;;;;;7.75;82.49;96135.31;4994838;28;20054;-64
2022/04/17 11:20:54;;;;;;;0.52;0.52;;;;;;;7.75;82.71;96131.84;4994903;28;20033;-65
2022/04/17 11:23:49;;;;;;;0.50;0.50;;;;;;;7.68;81.48;96139.03;4994860;28;20040;-64
2022/04/17 11:26:15;;;;;;;0.93;0.60;;;;;;;7.68;82.79;96137.25;4986150;28;20034;-63
2022/04/17 11:28:41;;;;;;;0.50;0.50;;;;;;;7.72;81.38;96148.44;4994763;28;20022;-64
2022/04/17 11:31:07;;;;;;;0.32;0.32;;;;;;;7.61;82.24;96134.91;4994612;28;20026;-63
2022/04/17 11:33:33;;;;;;;0.50;0.50;;;;;;;7.56;82.51;96127.25;4994595;28;20038;-64
2022/04/17 11:35:59;;;;;;;0.43;0.43;;;;;;;7.62;83.33;96132.28;4977308;28;20026;-64
2022/04/17 11:38:26;;;;;;;0.50;0.50;;;;;;;7.65;83.44;96134.75;4994533;28;20023;-64
2022/04/17 11:40:52;;;;;;;0.60;0.60;;;;;;;7.59;83.47;96140.19;4994368;28;20056;-63
2022/04/17 11:43:19;;;;;;;0.45;0.40;;;;;;;7.58;83.58;96144.53;4994508;28;20026;-64
2022/04/17 11:45:46;;;;;;;0.50;0.50;;;;;;;7.61;83.85;96142.72;4994386;28;20026;-64
2022/04/17 11:48:20;;;;;;;0.63;0.50;;;;;;;7.67;83.96;96143.38;4994454;28;20014;-64
2022/04/17 11:50:54;;;;;;;0.57;0.52;;;;;;;7.64;84.02;96129.59;4994271;28;20362;-62
2022/04/17 11:53:20;;;;;;;2.13;0.50;;;;;;;7.61;82.91;96129.72;4994415;28;20501;-65